Cass, West Virginia
Current Conditions -  °F | °C
As of 2:15 AM on Saturday 25 Oct 2014 (Local Time) from KHSP Reporting Station
Clear Clear  
Wind Chill: 35°   Ceiling: Unl
Heat Index: 42°   Visibility: 10mi
Dew Point: 37°   Wind: 14mph
Humidity: 81%   Direction: 300°WNW
Pressure: 30.02"   Gusts: NA
Location:  38.4°N, 79.91°W
Report Text: KHSP 250615Z AUTO 30012KT 10SM CLR 06/03 A3002 RMK AO2 T00560025
Loading
Personal Weather Stations






























Interactive Weather Map
Tropical Storm Tracking
New forecast layout! Learn more

10-Day Weather Forecast

Advertisements
Track Severe Weather on mobile